No6 Toa Maru — JD2310 — position and weather

sailwx.info

Track history (hours):
 
Tides and Currents Weather Stations Pressure Air Temp Water Temp Dewpoint Dewpoint Depression Visibility Wind Speed Wind Dir Waves Ship Positions

No6 Toa Maru

Last reported at 2018-Jun-25 11:19 UTC. Time now 2018-Jun-25 11:39 UTC.
Position N 35°13' E 139°43'.

Length 40 m; draft 3 m.

Type: Tug. MMSI: 431101161.

Date/timePositionNaut miles runAvg speedWind from/ knotsBaromVisibWave heightAir tempDewpointWater temp
2018-Jun-25 11:19N 35°13' E 139°43'0 0.0
2018-Jun-25 11:00N 35°13' E 139°43'0 0.0
2018-Jun-25 10:30N 35°13' E 139°43'0 0.3
2018-Jun-25 09:49N 35°13' E 139°43'2 7.7
2018-Jun-25 09:30N 35°13' E 139°46'1 2.1
2018-Jun-25 09:00N 35°12' E 139°45'2 0.9
2018-Jun-25 06:28N 35°13' E 139°43'3 5.5
2018-Jun-25 06:00N 35°12' E 139°46'2 3.2
2018-Jun-25 05:30N 35°14' E 139°45'2 3.4
2018-Jun-25 05:00N 35°13' E 139°43'0 0.0
2018-Jun-25 04:30N 35°13' E 139°43'0 0.0
2018-Jun-25 04:00N 35°13' E 139°43'0 0.0
2018-Jun-25 03:27N 35°13' E 139°43'1 3.2
2018-Jun-25 03:00N 35°12' E 139°45'2 3.7
2018-Jun-25 02:30N 35°11' E 139°46'3 6.2
2018-Jun-25 01:58N 35°13' E 139°43'0 0.0
2018-Jun-25 01:30N 35°13' E 139°43'1 2.1
2018-Jun-25 01:00N 35°13' E 139°44'1 1.8
2018-Jun-25 00:29N 35°13' E 139°46'2 4.2
2018-Jun-25 00:00N 35°13' E 139°43'0 0.0
2018-Jun-24 23:30N 35°13' E 139°43'3 6.2
2018-Jun-24 23:00N 35°11' E 139°45'2 3.6
2018-Jun-24 22:30N 35°10' E 139°47'5 9.0
2018-Jun-24 22:00N 35°13' E 139°43'0 0.5
2018-Jun-24 21:31N 35°13' E 139°43'0 0.0
2018-Jun-24 21:00N 35°13' E 139°43'0 0.0
2018-Jun-24 20:30N 35°13' E 139°43'5 9.5
2018-Jun-24 20:00N 35°10' E 139°47'2 3.3
2018-Jun-24 19:30N 35°11' E 139°46'3 6.1
2018-Jun-24 19:00N 35°13' E 139°43'0 0.0
2018-Jun-24 18:31N 35°13' E 139°43'0 0.0
2018-Jun-24 18:01N 35°13' E 139°43'0 0.0
2018-Jun-24 17:30N 35°13' E 139°43'0 0.0
2018-Jun-24 17:00N 35°13' E 139°43'0 0.0
2018-Jun-24 16:26N 35°13' E 139°43'0 0.0
2018-Jun-24 15:58N 35°13' E 139°43'0 0.0
2018-Jun-24 15:31N 35°13' E 139°43'0 0.0
2018-Jun-24 15:00N 35°13' E 139°43'0 0.0
2018-Jun-24 14:29N 35°13' E 139°43'0 0.0
2018-Jun-24 14:00N 35°13' E 139°43'510.1
2018-Jun-24 13:30N 35°09' E 139°47'2 3.5
2018-Jun-24 13:00N 35°11' E 139°46'3 6.5
2018-Jun-24 12:29N 35°13' E 139°43'0 0.0
2018-Jun-24 12:00N 35°13' E 139°43'0 0.0
2018-Jun-24 11:29N 35°13' E 139°43'0 0.0
2018-Jun-24 10:58N 35°13' E 139°43'0 0.0
2018-Jun-24 10:30N 35°13' E 139°43'0 0.0
2018-Jun-24 09:59N 35°13' E 139°43'2 4.9
2018-Jun-24 09:29N 35°13' E 139°46'2 3.5
2018-Jun-24 09:00N 35°13' E 139°44'1 1.3
2018-Jun-24 08:29N 35°13' E 139°43'0 0.0
2018-Jun-24 07:59N 35°13' E 139°43'2 4.3
2018-Jun-24 07:29N 35°13' E 139°46'1 2.8
2018-Jun-24 07:00N 35°11' E 139°46'0 0.7
2018-Jun-24 06:30N 35°11' E 139°46'3 6.3
2018-Jun-24 06:00N 35°13' E 139°43'0 0.0
2018-Jun-24 05:30N 35°13' E 139°43'0 0.0
2018-Jun-24 05:00N 35°13' E 139°43'0 0.2
2018-Jun-24 04:30N 35°13' E 139°43'2 4.4
2018-Jun-24 04:00N 35°13' E 139°46'2 3.2
2018-Jun-24 03:30N 35°13' E 139°44'1 0.2
2018-Jun-24 00:02N 35°13' E 139°43'113.2
2018-Jun-23 23:55N 35°13' E 139°45'1 2.1
2018-Jun-23 23:24N 35°12' E 139°46'3 6.0
2018-Jun-23 22:58N 35°13' E 139°43'0 0.0
2018-Jun-23 22:27N 35°13' E 139°43'4 4.4
2018-Jun-23 21:32N 35°11' E 139°47'213.0
2018-Jun-23 21:23N 35°12' E 139°46'2 2.7
2018-Jun-23 20:33N 35°13' E 139°43'0 0.0
2018-Jun-23 20:24N 35°13' E 139°43'511.4
2018-Jun-23 20:00N 35°09' E 139°47'3 5.3
2018-Jun-23 19:25N 35°12' E 139°45'2 3.6
2018-Jun-23 18:51N 35°13' E 139°43'0 0.0
2018-Jun-23 18:29N 35°13' E 139°43'0 0.0
2018-Jun-23 17:15N 35°13' E 139°43'0 0.0
2018-Jun-23 16:57N 35°13' E 139°43'0 0.0
2018-Jun-23 16:26N 35°13' E 139°43'3 5.5
2018-Jun-23 15:58N 35°12' E 139°46'1 2.3
2018-Jun-23 15:30N 35°13' E 139°46'2 3.3
2018-Jun-23 14:52N 35°13' E 139°43'0 0.0
2018-Jun-23 14:30N 35°13' E 139°43'0 0.0
2018-Jun-23 13:58N 35°13' E 139°43'0 0.0
2018-Jun-23 12:40N 35°13' E 139°43'3 9.8
2018-Jun-23 12:24N 35°13' E 139°46'1 2.5
2018-Jun-23 11:58N 35°13' E 139°46'1 0.3
2018-Jun-23 08:22N 35°13' E 139°44'1 1.8
2018-Jun-23 07:34N 35°12' E 139°46'113.7
2018-Jun-23 07:30N 35°13' E 139°45'2 3.5
2018-Jun-23 07:00N 35°13' E 139°43'0 0.0
2018-Jun-23 06:30N 35°13' E 139°43'2 3.7
2018-Jun-23 05:55N 35°13' E 139°46'2 4.8
2018-Jun-23 05:30N 35°13' E 139°43'0 0.4
2018-Jun-23 04:58N 35°13' E 139°43'0 0.0
2018-Jun-23 04:28N 35°13' E 139°43'0 0.0
2018-Jun-23 03:57N 35°13' E 139°43'0 0.0
2018-Jun-23 03:28N 35°13' E 139°43'0 0.0
2018-Jun-23 02:45N 35°13' E 139°43'0 0.0
2018-Jun-23 02:22N 35°13' E 139°43'0 0.0
2018-Jun-23 01:40N 35°13' E 139°43'0 0.0
2018-Jun-23 01:28N 35°13' E 139°43'0 0.0
2018-Jun-23 01:00N 35°13' E 139°43'0 0.0
2018-Jun-23 00:25N 35°13' E 139°43'0 0.5
2018-Jun-22 23:58N 35°13' E 139°43'2 3.1
2018-Jun-22 23:21N 35°13' E 139°46'4 9.6
2018-Jun-22 22:58N 35°10' E 139°46'1 1.3
2018-Jun-22 22:28N 35°10' E 139°46'4 1.8
2018-Jun-22 20:21N 35°13' E 139°43'5 9.3
2018-Jun-22 19:51N 35°09' E 139°47'2 5.6
2018-Jun-22 19:25N 35°12' E 139°46'2 0.4
2018-Jun-22 12:19N 35°13' E 139°43'2 7.8
2018-Jun-22 12:00N 35°12' E 139°46'1 1.7
2018-Jun-22 11:26N 35°13' E 139°46'2 1.0
2018-Jun-22 09:32N 35°13' E 139°43'0 1.7
2018-Jun-22 09:29N 35°13' E 139°43'2 3.2
2018-Jun-22 08:59N 35°13' E 139°45'2 2.8
2018-Jun-22 08:22N 35°13' E 139°43'0 0.0
2018-Jun-22 08:00N 35°13' E 139°43'0 0.0
2018-Jun-22 07:28N 35°13' E 139°43'0 0.0
2018-Jun-22 06:38N 35°13' E 139°43'0 0.0
2018-Jun-22 06:30N 35°13' E 139°43'2 3.6
2018-Jun-22 05:57N 35°13' E 139°46'2 3.4
2018-Jun-22 05:26N 35°13' E 139°43'0 0.1
2018-Jun-22 02:45N 35°13' E 139°43'0 0.4
2018-Jun-22 02:30N 35°13' E 139°43'2 3.1
2018-Jun-22 01:59N 35°13' E 139°45'2 3.8
2018-Jun-22 01:30N 35°13' E 139°43'0 0.0
2018-Jun-22 00:54N 35°13' E 139°43'0 0.0
2018-Jun-22 00:29N 35°13' E 139°43'0 0.0
2018-Jun-21 23:56N 35°13' E 139°43'0 0.0
2018-Jun-21 23:30N 35°13' E 139°43'0 0.0
2018-Jun-21 22:58N 35°13' E 139°43'2 4.8
2018-Jun-21 22:28N 35°12' E 139°46'1 1.9
2018-Jun-21 21:53N 35°14' E 139°45'2 5.1
2018-Jun-21 21:31N 35°12' E 139°46'0 0.7
2018-Jun-21 20:55N 35°12' E 139°46'3 6.3
2018-Jun-21 20:28N 35°13' E 139°43'0 0.0
2018-Jun-21 20:00N 35°13' E 139°43'0 0.0
2018-Jun-21 19:25N 35°13' E 139°43'0 0.0
2018-Jun-21 19:00N 35°13' E 139°43'0 0.0
2018-Jun-21 18:30N 35°13' E 139°43'0 0.0
2018-Jun-21 17:55N 35°13' E 139°43'0 0.0
2018-Jun-21 17:30N 35°13' E 139°43'0 0.0
2018-Jun-21 16:59N 35°13' E 139°43'2 2.7
2018-Jun-21 16:24N 35°12' E 139°45'1 2.9
2018-Jun-21 16:00N 35°14' E 139°45'2 3.5
2018-Jun-21 15:30N 35°13' E 139°43'0 0.0
2018-Jun-21 15:00N 35°13' E 139°43'0 0.0
2018-Jun-21 14:30N 35°13' E 139°43'0 0.0
2018-Jun-21 13:59N 35°13' E 139°43'0 0.0
2018-Jun-21 13:30N 35°13' E 139°43'0 0.0
2018-Jun-21 13:00N 35°13' E 139°43'0 0.0
2018-Jun-21 12:30N 35°13' E 139°43'0 0.0
2018-Jun-21 12:00N 35°13' E 139°43'0 0.0
2018-Jun-21 11:30N 35°13' E 139°43'0 0.0
2018-Jun-21 11:00N 35°13' E 139°43'0 0.0
2018-Jun-21 10:30N 35°13' E 139°43'0 0.0
2018-Jun-21 10:00N 35°13' E 139°43'2 1.8
2018-Jun-21 08:59N 35°14' E 139°45'2 2.8
2018-Jun-21 08:21N 35°13' E 139°43'0 0.0
2018-Jun-21 07:42N 35°13' E 139°43'1 2.7
2018-Jun-21 07:29N 35°13' E 139°44'1 2.1
2018-Jun-21 06:49N 35°13' E 139°46'410.4
2018-Jun-21 06:27N 35°09' E 139°47'4 5.2
2018-Jun-21 05:45N 35°13' E 139°45'2 7.3
2018-Jun-21 05:30N 35°13' E 139°43'0 0.0
2018-Jun-21 04:55N 35°13' E 139°43'2 1.6
2018-Jun-21 03:52N 35°14' E 139°45'2 3.9
2018-Jun-21 03:26N 35°13' E 139°43'0 0.0
2018-Jun-21 02:49N 35°13' E 139°43'0 0.0
2018-Jun-21 02:27N 35°13' E 139°43'0 0.0
2018-Jun-21 01:59N 35°13' E 139°43'0 0.0
2018-Jun-21 01:13N 35°13' E 139°43'0 0.0
2018-Jun-21 01:00N 35°13' E 139°43'2 3.9
2018-Jun-21 00:29N 35°12' E 139°45'3 5.6
2018-Jun-21 00:00N 35°10' E 139°47'4 8.2
2018-Jun-20 23:28N 35°13' E 139°43'0 0.5
2018-Jun-20 23:00N 35°13' E 139°43'1 2.2
2018-Jun-20 22:30N 35°13' E 139°44'1 1.6
2018-Jun-20 22:00N 35°13' E 139°45'2 3.5
2018-Jun-20 21:30N 35°13' E 139°43'0 0.0
2018-Jun-20 20:59N 35°13' E 139°43'0 0.0
2018-Jun-20 20:30N 35°13' E 139°43'3 5.9
2018-Jun-20 19:55N 35°11' E 139°46'1 3.4
2018-Jun-20 19:30N 35°09' E 139°47'5 9.2
2018-Jun-20 19:00N 35°13' E 139°43'0 0.0
2018-Jun-20 11:12N 35°13' E 139°43'2 3.8
2018-Jun-20 10:41N 35°14' E 139°45'0 1.0
2018-Jun-20 10:30N 35°14' E 139°45'2 1.1
2018-Jun-20 08:45N 35°13' E 139°43'2 4.4
2018-Jun-20 08:15N 35°14' E 139°46'0 0.7
2018-Jun-20 07:58N 35°14' E 139°46'2 0.7
2018-Jun-20 05:11N 35°13' E 139°43'5 1.8
2018-Jun-20 02:39N 35°10' E 139°47'3 9.8
2018-Jun-20 02:21N 35°12' E 139°45'2 0.6
2018-Jun-19 23:14N 35°13' E 139°43'0 0.0
2018-Jun-19 20:33N 35°13' E 139°43'113.1
2018-Jun-19 20:29N 35°13' E 139°44'3 5.4
2018-Jun-19 19:51N 35°10' E 139°46'4 0.9
2018-Jun-19 15:04N 35°13' E 139°43'113.7
2018-Jun-19 15:00N 35°13' E 139°44'1 2.4
2018-Jun-19 14:31N 35°13' E 139°46'2 0.6
2018-Jun-19 11:21N 35°13' E 139°43'2 3.6
2018-Jun-19 10:46N 35°14' E 139°46'1 3.9
2018-Jun-19 10:30N 35°13' E 139°45'1 0.5
2018-Jun-19 09:24N 35°13' E 139°44'1 3.3
2018-Jun-19 08:59N 35°14' E 139°46'2 4.1
2018-Jun-19 08:30N 35°13' E 139°43'0 0.2
2018-Jun-19 07:18N 35°13' E 139°43'2 2.8
2018-Jun-19 06:39N 35°13' E 139°46'0 0.1
2018-Jun-19 06:25N 35°13' E 139°46'1 0.6
2018-Jun-19 05:13N 35°13' E 139°45'2 1.0
2018-Jun-19 03:27N 35°13' E 139°43'0 0.0
2018-Jun-19 02:59N 35°13' E 139°43'2 3.6
2018-Jun-19 02:24N 35°13' E 139°46'2 4.1
2018-Jun-19 01:54N 35°13' E 139°43'0 0.3
2018-Jun-19 01:25N 35°13' E 139°43'0 0.0
2018-Jun-19 01:00N 35°13' E 139°43'2 3.5
2018-Jun-19 00:20N 35°12' E 139°46'2 3.4
2018-Jun-18 23:39N 35°13' E 139°43'0 0.0
2018-Jun-18 23:30N 35°13' E 139°43'0 0.0
2018-Jun-18 22:56N 35°13' E 139°43'5 4.2
2018-Jun-18 21:49N 35°10' E 139°47'411.9
2018-Jun-18 21:30N 35°13' E 139°44'1 2.2
2018-Jun-18 21:00N 35°13' E 139°43'0 0.0
2018-Jun-18 20:30N 35°13' E 139°43'0 0.0
2018-Jun-18 20:00N 35°13' E 139°43'0 0.0
2018-Jun-18 19:30N 35°13' E 139°43'0 0.0
2018-Jun-18 18:59N 35°13' E 139°43'0 0.0
2018-Jun-18 18:30N 35°13' E 139°43'0 0.0
2018-Jun-18 18:00N 35°13' E 139°43'0 0.0
2018-Jun-18 17:30N 35°13' E 139°43'0 0.0
2018-Jun-18 16:59N 35°13' E 139°43'0 0.0
2018-Jun-18 16:30N 35°13' E 139°43'0 0.0
2018-Jun-18 16:00N 35°13' E 139°43'0 0.0
2018-Jun-18 15:30N 35°13' E 139°43'0 0.0
2018-Jun-18 14:59N 35°13' E 139°43'0 0.0
2018-Jun-18 14:30N 35°13' E 139°43'3 4.7
2018-Jun-18 13:58N 35°13' E 139°46'1 2.2
2018-Jun-18 13:30N 35°13' E 139°45'2 3.6
2018-Jun-18 13:00N 35°13' E 139°43'0 0.0
2018-Jun-18 12:29N 35°13' E 139°43'0 0.0
2018-Jun-18 12:00N 35°13' E 139°43'0 0.0
2018-Jun-18 11:30N 35°13' E 139°43'0 0.0
2018-Jun-18 11:00N 35°13' E 139°43'0 0.0
2018-Jun-18 10:30N 35°13' E 139°43'2 3.1
2018-Jun-18 09:55N 35°14' E 139°45'2 3.6
2018-Jun-18 09:29N 35°13' E 139°43'0 0.5
2018-Jun-18 08:59N 35°13' E 139°43'0 0.0
2018-Jun-18 08:30N 35°13' E 139°43'2 4.4
2018-Jun-18 08:00N 35°12' E 139°45'1 2.1
2018-Jun-18 07:23N 35°13' E 139°45'2 4.8
2018-Jun-18 07:00N 35°13' E 139°43'0 0.0
2018-Jun-18 06:28N 35°13' E 139°43'0 0.0
2018-Jun-18 05:59N 35°13' E 139°43'2 4.6
2018-Jun-18 05:29N 35°12' E 139°46'1 1.4
2018-Jun-18 04:55N 35°13' E 139°46'2 2.0
2018-Jun-18 04:04N 35°11' E 139°46'111.9
2018-Jun-18 04:00N 35°12' E 139°45'2 1.7
2018-Jun-18 02:48N 35°13' E 139°43'0 0.0
2018-Jun-18 02:25N 35°13' E 139°43'2 3.5
2018-Jun-18 01:55N 35°13' E 139°45'0 1.0
2018-Jun-18 01:30N 35°13' E 139°45'2 3.1
2018-Jun-18 01:00N 35°13' E 139°43'0 0.0
2018-Jun-18 00:30N 35°13' E 139°43'0 0.0
2018-Jun-17 23:54N 35°13' E 139°43'1 2.7
2018-Jun-17 23:30N 35°13' E 139°44'4 7.2
2018-Jun-17 23:00N 35°10' E 139°46'4 2.8
2018-Jun-17 21:28N 35°13' E 139°43'2 2.9
2018-Jun-17 20:41N 35°12' E 139°46'2 1.4
2018-Jun-17 19:00N 35°13' E 139°43'4 5.5
2018-Jun-17 18:16N 35°11' E 139°47'311.5
2018-Jun-17 18:00N 35°13' E 139°44'1 0.1
2018-Jun-17 11:41N 35°13' E 139°44'212.9
2018-Jun-17 11:30N 35°12' E 139°46'1 2.4
2018-Jun-17 10:54N 35°13' E 139°45'2 0.9
2018-Jun-17 09:10N 35°13' E 139°43'212.7
2018-Jun-17 09:00N 35°12' E 139°46'1 1.7
2018-Jun-17 08:27N 35°13' E 139°46'2 3.6
2018-Jun-17 07:47N 35°11' E 139°47'310.0
2018-Jun-17 07:30N 35°13' E 139°45'1 0.5
2018-Jun-17 04:51N 35°13' E 139°43'2 6.6
2018-Jun-17 04:30N 35°13' E 139°46'1 1.1
2018-Jun-17 04:00N 35°13' E 139°46'2 0.5
2018-Jun-17 00:23N 35°13' E 139°43'512.8
2018-Jun-16 23:59N 35°09' E 139°47'3 4.4
2018-Jun-16 23:23N 35°11' E 139°46'3 6.1
2018-Jun-16 22:55N 35°13' E 139°43'0 0.0
2018-Jun-16 22:23N 35°13' E 139°43'3 8.8
2018-Jun-16 22:00N 35°11' E 139°46'0 0.7
2018-Jun-16 21:30N 35°11' E 139°46'3 6.1
2018-Jun-16 20:57N 35°13' E 139°43'0 0.0
2018-Jun-16 20:25N 35°13' E 139°43'0 0.0
2018-Jun-16 20:00N 35°13' E 139°43'5 8.5
2018-Jun-16 19:25N 35°09' E 139°47'1 2.6
2018-Jun-16 19:00N 35°10' E 139°46'4 0.8
2018-Jun-16 14:09N 35°13' E 139°43'211.1
2018-Jun-16 13:56N 35°12' E 139°46'1 2.9
2018-Jun-16 13:30N 35°13' E 139°45'2 0.4
2018-Jun-16 09:19N 35°13' E 139°43'2 2.2
2018-Jun-16 08:37N 35°14' E 139°45'2 6.7
2018-Jun-16 08:23N 35°13' E 139°43'2 1.8
2018-Jun-16 07:32N 35°13' E 139°45'0 2.6
2018-Jun-16 07:30N 35°13' E 139°45'2 3.6
2018-Jun-16 07:00N 35°13' E 139°43'2 4.8
2018-Jun-16 06:30N 35°12' E 139°46'1 2.1
2018-Jun-16 05:51N 35°14' E 139°45'2 5.2
2018-Jun-16 05:30N 35°13' E 139°43'0 0.0
2018-Jun-16 04:59N 35°13' E 139°43'0 0.0
2018-Jun-16 04:29N 35°13' E 139°43'0 0.0
2018-Jun-16 04:00N 35°13' E 139°43'0 0.0
2018-Jun-16 03:27N 35°13' E 139°43'5 8.0
2018-Jun-16 02:50N 35°09' E 139°47'3 7.3
2018-Jun-16 02:29N 35°12' E 139°45'2 1.6
2018-Jun-16 00:55N 35°13' E 139°43'0 0.0
2018-Jun-16 00:21N 35°13' E 139°43'0 0.0
2018-Jun-15 23:40N 35°13' E 139°43'0 0.0
2018-Jun-15 23:27N 35°13' E 139°43'0 0.0
2018-Jun-15 22:54N 35°13' E 139°43'3 5.3
2018-Jun-15 22:26N 35°12' E 139°46'1 2.7
2018-Jun-15 22:00N 35°13' E 139°45'1 2.8
2018-Jun-15 21:30N 35°13' E 139°43'0 0.0
2018-Jun-15 21:00N 35°13' E 139°43'0 0.0
2018-Jun-15 20:28N 35°13' E 139°43'4 7.8
2018-Jun-15 20:00N 35°10' E 139°46'1 1.5
2018-Jun-15 19:23N 35°10' E 139°47'411.2
2018-Jun-15 19:00N 35°13' E 139°43'0 0.0
2018-Jun-15 18:21N 35°13' E 139°43'0 0.0
2018-Jun-15 17:48N 35°13' E 139°43'0 0.0
2018-Jun-15 17:31N 35°13' E 139°43'0 0.0
2018-Jun-15 17:00N 35°13' E 139°43'0 0.0
2018-Jun-15 16:28N 35°13' E 139°43'0 0.0
2018-Jun-15 15:59N 35°13' E 139°43'0 0.0
2018-Jun-15 15:30N 35°13' E 139°43'0 0.0
2018-Jun-15 14:59N 35°13' E 139°43'0 0.0
2018-Jun-15 14:25N 35°13' E 139°43'0 0.0
2018-Jun-15 14:00N 35°13' E 139°43'0 0.0
2018-Jun-15 13:28N 35°13' E 139°43'0 0.0
2018-Jun-15 13:00N 35°13' E 139°43'0 0.0
2018-Jun-15 12:30N 35°13' E 139°43'0 0.0
2018-Jun-15 11:59N 35°13' E 139°43'0 0.0
2018-Jun-15 11:28N 35°13' E 139°43'  
Track history (hours):
 
Tides and Currents Weather Stations Pressure Air Temp Water Temp Dewpoint Dewpoint Depression Visibility Wind Speed Wind Dir Waves Ship Positions

No6 Toa Maru

Last reported at 2018-Jun-25 11:19 UTC. Time now 2018-Jun-25 11:39 UTC.
Position N 35°13' E 139°43'.

Length 40 m; draft 3 m.

Type: Tug. MMSI: 431101161.

Date/timePositionNaut miles runAvg speedWind from/ knotsBaromVisibWave heightAir tempDewpointWater temp
2018-Jun-25 11:19N 35°13' E 139°43'0 0.0
2018-Jun-25 11:00N 35°13' E 139°43'0 0.0
2018-Jun-25 10:30N 35°13' E 139°43'0 0.3
2018-Jun-25 09:49N 35°13' E 139°43'2 7.7
2018-Jun-25 09:30N 35°13' E 139°46'1 2.1
2018-Jun-25 09:00N 35°12' E 139°45'2 0.9
2018-Jun-25 06:28N 35°13' E 139°43'3 5.5
2018-Jun-25 06:00N 35°12' E 139°46'2 3.2
2018-Jun-25 05:30N 35°14' E 139°45'2 3.4
2018-Jun-25 05:00N 35°13' E 139°43'0 0.0
2018-Jun-25 04:30N 35°13' E 139°43'0 0.0
2018-Jun-25 04:00N 35°13' E 139°43'0 0.0
2018-Jun-25 03:27N 35°13' E 139°43'1 3.2
2018-Jun-25 03:00N 35°12' E 139°45'2 3.7
2018-Jun-25 02:30N 35°11' E 139°46'3 6.2
2018-Jun-25 01:58N 35°13' E 139°43'0 0.0
2018-Jun-25 01:30N 35°13' E 139°43'1 2.1
2018-Jun-25 01:00N 35°13' E 139°44'1 1.8
2018-Jun-25 00:29N 35°13' E 139°46'2 4.2
2018-Jun-25 00:00N 35°13' E 139°43'0 0.0
2018-Jun-24 23:30N 35°13' E 139°43'3 6.2
2018-Jun-24 23:00N 35°11' E 139°45'2 3.6
2018-Jun-24 22:30N 35°10' E 139°47'5 9.0
2018-Jun-24 22:00N 35°13' E 139°43'0 0.5
2018-Jun-24 21:31N 35°13' E 139°43'0 0.0
2018-Jun-24 21:00N 35°13' E 139°43'0 0.0
2018-Jun-24 20:30N 35°13' E 139°43'5 9.5
2018-Jun-24 20:00N 35°10' E 139°47'2 3.3
2018-Jun-24 19:30N 35°11' E 139°46'3 6.1
2018-Jun-24 19:00N 35°13' E 139°43'0 0.0
2018-Jun-24 18:31N 35°13' E 139°43'0 0.0
2018-Jun-24 18:01N 35°13' E 139°43'0 0.0
2018-Jun-24 17:30N 35°13' E 139°43'0 0.0
2018-Jun-24 17:00N 35°13' E 139°43'0 0.0
2018-Jun-24 16:26N 35°13' E 139°43'0 0.0
2018-Jun-24 15:58N 35°13' E 139°43'0 0.0
2018-Jun-24 15:31N 35°13' E 139°43'0 0.0
2018-Jun-24 15:00N 35°13' E 139°43'0 0.0
2018-Jun-24 14:29N 35°13' E 139°43'0 0.0
2018-Jun-24 14:00N 35°13' E 139°43'510.1
2018-Jun-24 13:30N 35°09' E 139°47'2 3.5
2018-Jun-24 13:00N 35°11' E 139°46'3 6.5
2018-Jun-24 12:29N 35°13' E 139°43'0 0.0
2018-Jun-24 12:00N 35°13' E 139°43'0 0.0
2018-Jun-24 11:29N 35°13' E 139°43'0 0.0
2018-Jun-24 10:58N 35°13' E 139°43'0 0.0
2018-Jun-24 10:30N 35°13' E 139°43'0 0.0
2018-Jun-24 09:59N 35°13' E 139°43'2 4.9
2018-Jun-24 09:29N 35°13' E 139°46'2 3.5
2018-Jun-24 09:00N 35°13' E 139°44'1 1.3
2018-Jun-24 08:29N 35°13' E 139°43'0 0.0
2018-Jun-24 07:59N 35°13' E 139°43'2 4.3
2018-Jun-24 07:29N 35°13' E 139°46'1 2.8
2018-Jun-24 07:00N 35°11' E 139°46'0 0.7
2018-Jun-24 06:30N 35°11' E 139°46'3 6.3
2018-Jun-24 06:00N 35°13' E 139°43'0 0.0
2018-Jun-24 05:30N 35°13' E 139°43'0 0.0
2018-Jun-24 05:00N 35°13' E 139°43'0 0.2
2018-Jun-24 04:30N 35°13' E 139°43'2 4.4
2018-Jun-24 04:00N 35°13' E 139°46'2 3.2
2018-Jun-24 03:30N 35°13' E 139°44'1 0.2
2018-Jun-24 00:02N 35°13' E 139°43'113.2
2018-Jun-23 23:55N 35°13' E 139°45'1 2.1
2018-Jun-23 23:24N 35°12' E 139°46'3 6.0
2018-Jun-23 22:58N 35°13' E 139°43'0 0.0
2018-Jun-23 22:27N 35°13' E 139°43'4 4.4
2018-Jun-23 21:32N 35°11' E 139°47'213.0
2018-Jun-23 21:23N 35°12' E 139°46'2 2.7
2018-Jun-23 20:33N 35°13' E 139°43'0 0.0
2018-Jun-23 20:24N 35°13' E 139°43'511.4
2018-Jun-23 20:00N 35°09' E 139°47'3 5.3
2018-Jun-23 19:25N 35°12' E 139°45'2 3.6
2018-Jun-23 18:51N 35°13' E 139°43'0 0.0
2018-Jun-23 18:29N 35°13' E 139°43'0 0.0
2018-Jun-23 17:15N 35°13' E 139°43'0 0.0
2018-Jun-23 16:57N 35°13' E 139°43'0 0.0
2018-Jun-23 16:26N 35°13' E 139°43'3 5.5
2018-Jun-23 15:58N 35°12' E 139°46'1 2.3
2018-Jun-23 15:30N 35°13' E 139°46'2 3.3
2018-Jun-23 14:52N 35°13' E 139°43'0 0.0
2018-Jun-23 14:30N 35°13' E 139°43'0 0.0
2018-Jun-23 13:58N 35°13' E 139°43'0 0.0
2018-Jun-23 12:40N 35°13' E 139°43'3 9.8
2018-Jun-23 12:24N 35°13' E 139°46'1 2.5
2018-Jun-23 11:58N 35°13' E 139°46'1 0.3
2018-Jun-23 08:22N 35°13' E 139°44'1 1.8
2018-Jun-23 07:34N 35°12' E 139°46'113.7
2018-Jun-23 07:30N 35°13' E 139°45'2 3.5
2018-Jun-23 07:00N 35°13' E 139°43'0 0.0
2018-Jun-23 06:30N 35°13' E 139°43'2 3.7
2018-Jun-23 05:55N 35°13' E 139°46'2 4.8
2018-Jun-23 05:30N 35°13' E 139°43'0 0.4
2018-Jun-23 04:58N 35°13' E 139°43'0 0.0
2018-Jun-23 04:28N 35°13' E 139°43'0 0.0
2018-Jun-23 03:57N 35°13' E 139°43'0 0.0
2018-Jun-23 03:28N 35°13' E 139°43'0 0.0
2018-Jun-23 02:45N 35°13' E 139°43'0 0.0
2018-Jun-23 02:22N 35°13' E 139°43'0 0.0
2018-Jun-23 01:40N 35°13' E 139°43'0 0.0
2018-Jun-23 01:28N 35°13' E 139°43'0 0.0
2018-Jun-23 01:00N 35°13' E 139°43'0 0.0
2018-Jun-23 00:25N 35°13' E 139°43'0 0.5
2018-Jun-22 23:58N 35°13' E 139°43'2 3.1
2018-Jun-22 23:21N 35°13' E 139°46'4 9.6
2018-Jun-22 22:58N 35°10' E 139°46'1 1.3
2018-Jun-22 22:28N 35°10' E 139°46'4 1.8
2018-Jun-22 20:21N 35°13' E 139°43'5 9.3
2018-Jun-22 19:51N 35°09' E 139°47'2 5.6
2018-Jun-22 19:25N 35°12' E 139°46'2 0.4
2018-Jun-22 12:19N 35°13' E 139°43'2 7.8
2018-Jun-22 12:00N 35°12' E 139°46'1 1.7
2018-Jun-22 11:26N 35°13' E 139°46'2 1.0
2018-Jun-22 09:32N 35°13' E 139°43'0 1.7
2018-Jun-22 09:29N 35°13' E 139°43'2 3.2
2018-Jun-22 08:59N 35°13' E 139°45'2 2.8
2018-Jun-22 08:22N 35°13' E 139°43'0 0.0
2018-Jun-22 08:00N 35°13' E 139°43'0 0.0
2018-Jun-22 07:28N 35°13' E 139°43'0 0.0
2018-Jun-22 06:38N 35°13' E 139°43'0 0.0
2018-Jun-22 06:30N 35°13' E 139°43'2 3.6
2018-Jun-22 05:57N 35°13' E 139°46'2 3.4
2018-Jun-22 05:26N 35°13' E 139°43'0 0.1
2018-Jun-22 02:45N 35°13' E 139°43'0 0.4
2018-Jun-22 02:30N 35°13' E 139°43'2 3.1
2018-Jun-22 01:59N 35°13' E 139°45'2 3.8
2018-Jun-22 01:30N 35°13' E 139°43'0 0.0
2018-Jun-22 00:54N 35°13' E 139°43'0 0.0
2018-Jun-22 00:29N 35°13' E 139°43'0 0.0
2018-Jun-21 23:56N 35°13' E 139°43'0 0.0
2018-Jun-21 23:30N 35°13' E 139°43'0 0.0
2018-Jun-21 22:58N 35°13' E 139°43'2 4.8
2018-Jun-21 22:28N 35°12' E 139°46'1 1.9
2018-Jun-21 21:53N 35°14' E 139°45'2 5.1
2018-Jun-21 21:31N 35°12' E 139°46'0 0.7
2018-Jun-21 20:55N 35°12' E 139°46'3 6.3
2018-Jun-21 20:28N 35°13' E 139°43'0 0.0
2018-Jun-21 20:00N 35°13' E 139°43'0 0.0
2018-Jun-21 19:25N 35°13' E 139°43'0 0.0
2018-Jun-21 19:00N 35°13' E 139°43'0 0.0
2018-Jun-21 18:30N 35°13' E 139°43'0 0.0
2018-Jun-21 17:55N 35°13' E 139°43'0 0.0
2018-Jun-21 17:30N 35°13' E 139°43'0 0.0
2018-Jun-21 16:59N 35°13' E 139°43'2 2.7
2018-Jun-21 16:24N 35°12' E 139°45'1 2.9
2018-Jun-21 16:00N 35°14' E 139°45'2 3.5
2018-Jun-21 15:30N 35°13' E 139°43'0 0.0
2018-Jun-21 15:00N 35°13' E 139°43'0 0.0
2018-Jun-21 14:30N 35°13' E 139°43'0 0.0
2018-Jun-21 13:59N 35°13' E 139°43'0 0.0
2018-Jun-21 13:30N 35°13' E 139°43'0 0.0
2018-Jun-21 13:00N 35°13' E 139°43'0 0.0
2018-Jun-21 12:30N 35°13' E 139°43'0 0.0
2018-Jun-21 12:00N 35°13' E 139°43'0 0.0
2018-Jun-21 11:30N 35°13' E 139°43'0 0.0
2018-Jun-21 11:00N 35°13' E 139°43'0 0.0
2018-Jun-21 10:30N 35°13' E 139°43'0 0.0
2018-Jun-21 10:00N 35°13' E 139°43'2 1.8
2018-Jun-21 08:59N 35°14' E 139°45'2 2.8
2018-Jun-21 08:21N 35°13' E 139°43'0 0.0
2018-Jun-21 07:42N 35°13' E 139°43'1 2.7
2018-Jun-21 07:29N 35°13' E 139°44'1 2.1
2018-Jun-21 06:49N 35°13' E 139°46'410.4
2018-Jun-21 06:27N 35°09' E 139°47'4 5.2
2018-Jun-21 05:45N 35°13' E 139°45'2 7.3
2018-Jun-21 05:30N 35°13' E 139°43'0 0.0
2018-Jun-21 04:55N 35°13' E 139°43'2 1.6
2018-Jun-21 03:52N 35°14' E 139°45'2 3.9
2018-Jun-21 03:26N 35°13' E 139°43'0 0.0
2018-Jun-21 02:49N 35°13' E 139°43'0 0.0
2018-Jun-21 02:27N 35°13' E 139°43'0 0.0
2018-Jun-21 01:59N 35°13' E 139°43'0 0.0
2018-Jun-21 01:13N 35°13' E 139°43'0 0.0
2018-Jun-21 01:00N 35°13' E 139°43'2 3.9
2018-Jun-21 00:29N 35°12' E 139°45'3 5.6
2018-Jun-21 00:00N 35°10' E 139°47'4 8.2
2018-Jun-20 23:28N 35°13' E 139°43'0 0.5
2018-Jun-20 23:00N 35°13' E 139°43'1 2.2
2018-Jun-20 22:30N 35°13' E 139°44'1 1.6
2018-Jun-20 22:00N 35°13' E 139°45'2 3.5
2018-Jun-20 21:30N 35°13' E 139°43'0 0.0
2018-Jun-20 20:59N 35°13' E 139°43'0 0.0
2018-Jun-20 20:30N 35°13' E 139°43'3 5.9
2018-Jun-20 19:55N 35°11' E 139°46'1 3.4
2018-Jun-20 19:30N 35°09' E 139°47'5 9.2
2018-Jun-20 19:00N 35°13' E 139°43'0 0.0
2018-Jun-20 11:12N 35°13' E 139°43'2 3.8
2018-Jun-20 10:41N 35°14' E 139°45'0 1.0
2018-Jun-20 10:30N 35°14' E 139°45'2 1.1
2018-Jun-20 08:45N 35°13' E 139°43'2 4.4
2018-Jun-20 08:15N 35°14' E 139°46'0 0.7
2018-Jun-20 07:58N 35°14' E 139°46'2 0.7
2018-Jun-20 05:11N 35°13' E 139°43'5 1.8
2018-Jun-20 02:39N 35°10' E 139°47'3 9.8
2018-Jun-20 02:21N 35°12' E 139°45'2 0.6
2018-Jun-19 23:14N 35°13' E 139°43'0 0.0
2018-Jun-19 20:33N 35°13' E 139°43'113.1
2018-Jun-19 20:29N 35°13' E 139°44'3 5.4
2018-Jun-19 19:51N 35°10' E 139°46'4 0.9
2018-Jun-19 15:04N 35°13' E 139°43'113.7
2018-Jun-19 15:00N 35°13' E 139°44'1 2.4
2018-Jun-19 14:31N 35°13' E 139°46'2 0.6
2018-Jun-19 11:21N 35°13' E 139°43'2 3.6
2018-Jun-19 10:46N 35°14' E 139°46'1 3.9
2018-Jun-19 10:30N 35°13' E 139°45'1 0.5
2018-Jun-19 09:24N 35°13' E 139°44'1 3.3
2018-Jun-19 08:59N 35°14' E 139°46'2 4.1
2018-Jun-19 08:30N 35°13' E 139°43'0 0.2
2018-Jun-19 07:18N 35°13' E 139°43'2 2.8
2018-Jun-19 06:39N 35°13' E 139°46'0 0.1
2018-Jun-19 06:25N 35°13' E 139°46'1 0.6
2018-Jun-19 05:13N 35°13' E 139°45'2 1.0
2018-Jun-19 03:27N 35°13' E 139°43'0 0.0
2018-Jun-19 02:59N 35°13' E 139°43'2 3.6
2018-Jun-19 02:24N 35°13' E 139°46'2 4.1
2018-Jun-19 01:54N 35°13' E 139°43'0 0.3
2018-Jun-19 01:25N 35°13' E 139°43'0 0.0
2018-Jun-19 01:00N 35°13' E 139°43'2 3.5
2018-Jun-19 00:20N 35°12' E 139°46'2 3.4
2018-Jun-18 23:39N 35°13' E 139°43'0 0.0
2018-Jun-18 23:30N 35°13' E 139°43'0 0.0
2018-Jun-18 22:56N 35°13' E 139°43'5 4.2
2018-Jun-18 21:49N 35°10' E 139°47'411.9
2018-Jun-18 21:30N 35°13' E 139°44'1 2.2
2018-Jun-18 21:00N 35°13' E 139°43'0 0.0
2018-Jun-18 20:30N 35°13' E 139°43'0 0.0
2018-Jun-18 20:00N 35°13' E 139°43'0 0.0
2018-Jun-18 19:30N 35°13' E 139°43'0 0.0
2018-Jun-18 18:59N 35°13' E 139°43'0 0.0
2018-Jun-18 18:30N 35°13' E 139°43'0 0.0
2018-Jun-18 18:00N 35°13' E 139°43'0 0.0
2018-Jun-18 17:30N 35°13' E 139°43'0 0.0
2018-Jun-18 16:59N 35°13' E 139°43'0 0.0
2018-Jun-18 16:30N 35°13' E 139°43'0 0.0
2018-Jun-18 16:00N 35°13' E 139°43'0 0.0
2018-Jun-18 15:30N 35°13' E 139°43'0 0.0
2018-Jun-18 14:59N 35°13' E 139°43'0 0.0
2018-Jun-18 14:30N 35°13' E 139°43'3 4.7
2018-Jun-18 13:58N 35°13' E 139°46'1 2.2
2018-Jun-18 13:30N 35°13' E 139°45'2 3.6
2018-Jun-18 13:00N 35°13' E 139°43'0 0.0
2018-Jun-18 12:29N 35°13' E 139°43'0 0.0
2018-Jun-18 12:00N 35°13' E 139°43'0 0.0
2018-Jun-18 11:30N 35°13' E 139°43'0 0.0
2018-Jun-18 11:00N 35°13' E 139°43'0 0.0
2018-Jun-18 10:30N 35°13' E 139°43'2 3.1
2018-Jun-18 09:55N 35°14' E 139°45'2 3.6
2018-Jun-18 09:29N 35°13' E 139°43'0 0.5
2018-Jun-18 08:59N 35°13' E 139°43'0 0.0
2018-Jun-18 08:30N 35°13' E 139°43'2 4.4
2018-Jun-18 08:00N 35°12' E 139°45'1 2.1
2018-Jun-18 07:23N 35°13' E 139°45'2 4.8
2018-Jun-18 07:00N 35°13' E 139°43'0 0.0
2018-Jun-18 06:28N 35°13' E 139°43'0 0.0
2018-Jun-18 05:59N 35°13' E 139°43'2 4.6
2018-Jun-18 05:29N 35°12' E 139°46'1 1.4
2018-Jun-18 04:55N 35°13' E 139°46'2 2.0
2018-Jun-18 04:04N 35°11' E 139°46'111.9
2018-Jun-18 04:00N 35°12' E 139°45'2 1.7
2018-Jun-18 02:48N 35°13' E 139°43'0 0.0
2018-Jun-18 02:25N 35°13' E 139°43'2 3.5
2018-Jun-18 01:55N 35°13' E 139°45'0 1.0
2018-Jun-18 01:30N 35°13' E 139°45'2 3.1
2018-Jun-18 01:00N 35°13' E 139°43'0 0.0
2018-Jun-18 00:30N 35°13' E 139°43'0 0.0
2018-Jun-17 23:54N 35°13' E 139°43'1 2.7
2018-Jun-17 23:30N 35°13' E 139°44'4 7.2
2018-Jun-17 23:00N 35°10' E 139°46'4 2.8
2018-Jun-17 21:28N 35°13' E 139°43'2 2.9
2018-Jun-17 20:41N 35°12' E 139°46'2 1.4
2018-Jun-17 19:00N 35°13' E 139°43'4 5.5
2018-Jun-17 18:16N 35°11' E 139°47'311.5
2018-Jun-17 18:00N 35°13' E 139°44'1 0.1
2018-Jun-17 11:41N 35°13' E 139°44'212.9
2018-Jun-17 11:30N 35°12' E 139°46'1 2.4
2018-Jun-17 10:54N 35°13' E 139°45'2 0.9
2018-Jun-17 09:10N 35°13' E 139°43'212.7
2018-Jun-17 09:00N 35°12' E 139°46'1 1.7
2018-Jun-17 08:27N 35°13' E 139°46'2 3.6
2018-Jun-17 07:47N 35°11' E 139°47'310.0
2018-Jun-17 07:30N 35°13' E 139°45'1 0.5
2018-Jun-17 04:51N 35°13' E 139°43'2 6.6
2018-Jun-17 04:30N 35°13' E 139°46'1 1.1
2018-Jun-17 04:00N 35°13' E 139°46'2 0.5
2018-Jun-17 00:23N 35°13' E 139°43'512.8
2018-Jun-16 23:59N 35°09' E 139°47'3 4.4
2018-Jun-16 23:23N 35°11' E 139°46'3 6.1
2018-Jun-16 22:55N 35°13' E 139°43'0 0.0
2018-Jun-16 22:23N 35°13' E 139°43'3 8.8
2018-Jun-16 22:00N 35°11' E 139°46'0 0.7
2018-Jun-16 21:30N 35°11' E 139°46'3 6.1
2018-Jun-16 20:57N 35°13' E 139°43'0 0.0
2018-Jun-16 20:25N 35°13' E 139°43'0 0.0
2018-Jun-16 20:00N 35°13' E 139°43'5 8.5
2018-Jun-16 19:25N 35°09' E 139°47'1 2.6
2018-Jun-16 19:00N 35°10' E 139°46'4 0.8
2018-Jun-16 14:09N 35°13' E 139°43'211.1
2018-Jun-16 13:56N 35°12' E 139°46'1 2.9
2018-Jun-16 13:30N 35°13' E 139°45'2 0.4
2018-Jun-16 09:19N 35°13' E 139°43'2 2.2
2018-Jun-16 08:37N 35°14' E 139°45'2 6.7
2018-Jun-16 08:23N 35°13' E 139°43'2 1.8
2018-Jun-16 07:32N 35°13' E 139°45'0 2.6
2018-Jun-16 07:30N 35°13' E 139°45'2 3.6
2018-Jun-16 07:00N 35°13' E 139°43'2 4.8
2018-Jun-16 06:30N 35°12' E 139°46'1 2.1
2018-Jun-16 05:51N 35°14' E 139°45'2 5.2
2018-Jun-16 05:30N 35°13' E 139°43'0 0.0
2018-Jun-16 04:59N 35°13' E 139°43'0 0.0
2018-Jun-16 04:29N 35°13' E 139°43'0 0.0
2018-Jun-16 04:00N 35°13' E 139°43'0 0.0
2018-Jun-16 03:27N 35°13' E 139°43'5 8.0
2018-Jun-16 02:50N 35°09' E 139°47'3 7.3
2018-Jun-16 02:29N 35°12' E 139°45'2 1.6
2018-Jun-16 00:55N 35°13' E 139°43'0 0.0
2018-Jun-16 00:21N 35°13' E 139°43'0 0.0
2018-Jun-15 23:40N 35°13' E 139°43'0 0.0
2018-Jun-15 23:27N 35°13' E 139°43'0 0.0
2018-Jun-15 22:54N 35°13' E 139°43'3 5.3
2018-Jun-15 22:26N 35°12' E 139°46'1 2.7
2018-Jun-15 22:00N 35°13' E 139°45'1 2.8
2018-Jun-15 21:30N 35°13' E 139°43'0 0.0
2018-Jun-15 21:00N 35°13' E 139°43'0 0.0
2018-Jun-15 20:28N 35°13' E 139°43'4 7.8
2018-Jun-15 20:00N 35°10' E 139°46'1 1.5
2018-Jun-15 19:23N 35°10' E 139°47'411.2
2018-Jun-15 19:00N 35°13' E 139°43'0 0.0
2018-Jun-15 18:21N 35°13' E 139°43'0 0.0
2018-Jun-15 17:48N 35°13' E 139°43'0 0.0
2018-Jun-15 17:31N 35°13' E 139°43'0 0.0
2018-Jun-15 17:00N 35°13' E 139°43'0 0.0
2018-Jun-15 16:28N 35°13' E 139°43'0 0.0
2018-Jun-15 15:59N 35°13' E 139°43'0 0.0
2018-Jun-15 15:30N 35°13' E 139°43'0 0.0
2018-Jun-15 14:59N 35°13' E 139°43'0 0.0
2018-Jun-15 14:25N 35°13' E 139°43'0 0.0
2018-Jun-15 14:00N 35°13' E 139°43'0 0.0
2018-Jun-15 13:28N 35°13' E 139°43'0 0.0
2018-Jun-15 13:00N 35°13' E 139°43'0 0.0
2018-Jun-15 12:30N 35°13' E 139°43'0 0.0
2018-Jun-15 11:59N 35°13' E 139°43'0 0.0
2018-Jun-15 11:28N 35°13' E 139°43'  

Dump ship's entire track history